Time;durP1;ratioP1;P1;durP2;ratioP2;P2;SDS_P1;SDS_P2;PMS_P1;PMS_P2;Temp;Humidity;BMP_temperature;BMP_pressure;BME280_temperature;BME280_humidity;BME280_pressure;Samples;Min_cycle;Max_cycle;Signal;HPM_P1;HPM_P2
2023/08/16 00:01:07;;;;;;;11.23;5.85;;;;;;;-146.27;91.35;82233.53;5020597;28;20026;-74
2023/08/16 00:03:32;;;;;;;13.25;6.22;;;;;;;-146.27;91.37;82261.66;5020883;28;20057;-73
2023/08/16 00:06:07;;;;;;;10.35;6.07;;;;;;;-146.27;91.23;82269.69;5020646;28;20239;-73
2023/08/16 00:08:32;;;;;;;8.75;5.50;;;;;;;-146.27;91.50;82249.59;5019759;28;20055;-74
2023/08/16 00:10:58;;;;;;;11.35;6.22;;;;;;;-146.27;91.52;82255.63;5023209;28;20029;-73
2023/08/16 00:13:23;;;;;;;11.73;5.55;;;;;;;-146.27;92.08;82263.66;5029289;28;20446;-72
2023/08/16 00:15:49;;;;;;;7.97;6.13;;;;;;;-146.27;91.94;82213.44;5025074;28;20076;-74
2023/08/16 00:18:15;;;;;;;9.50;6.22;;;;;;;-146.27;91.66;82277.72;5025734;28;20079;-73
2023/08/16 00:20:40;;;;;;;8.70;5.63;;;;;;;-146.27;91.88;82311.88;5040284;28;20379;-73
2023/08/16 00:23:05;;;;;;;7.60;5.38;;;;;;;-146.27;91.69;82291.78;5026446;28;20021;-72
2023/08/16 00:25:31;;;;;;;8.13;5.70;;;;;;;-146.27;91.53;82295.81;5024907;28;20528;-73
2023/08/16 00:27:56;;;;;;;9.65;5.40;;;;;;;-146.27;91.48;82313.88;5026343;28;20397;-73
2023/08/16 00:30:21;;;;;;;9.00;5.63;;;;;;;-146.27;92.16;82311.88;5026258;28;20032;-73
2023/08/16 00:32:47;;;;;;;8.70;5.68;;;;;;;-146.27;91.79;82325.94;5036741;28;20033;-73
2023/08/16 00:35:12;;;;;;;9.10;6.15;;;;;;;-146.27;91.91;82305.84;5026271;28;20045;-73
2023/08/16 00:37:37;;;;;;;10.43;6.05;;;;;;;-146.27;92.31;82340.00;5028585;28;20025;-73
2023/08/16 00:40:03;;;;;;;8.98;5.70;;;;;;;-146.27;91.61;82323.91;5020809;28;20065;-72
2023/08/16 00:42:29;;;;;;;6.57;5.38;;;;;;;-146.27;92.34;82426.38;5028923;28;20099;-73
2023/08/16 00:44:54;;;;;;;9.45;5.43;;;;;;;-146.27;91.78;82350.03;5031369;28;20025;-71
2023/08/16 00:47:19;;;;;;;9.30;5.50;;;;;;;-146.27;91.76;82374.13;5029231;28;21383;-73
2023/08/16 00:49:45;;;;;;;10.90;6.15;;;;;;;-146.27;92.71;82352.03;5030263;28;20025;-72
2023/08/16 00:52:10;;;;;;;9.70;6.22;;;;;;;-146.27;92.47;82356.06;5030675;28;20029;-73
2023/08/16 00:54:36;;;;;;;10.90;6.20;;;;;;;-146.27;92.63;82378.16;5030622;28;20064;-75
2023/08/16 00:57:03;;;;;;;9.55;6.25;;;;;;;-146.27;93.02;82366.09;5033310;28;20018;-74
2023/08/16 00:59:28;;;;;;;10.75;6.10;;;;;;;-146.27;92.40;82342.00;5029113;28;20101;-73
2023/08/16 01:01:54;;;;;;;10.07;5.97;;;;;;;-146.27;92.04;82392.22;5030601;28;20152;-73
2023/08/16 01:04:20;;;;;;;10.68;5.95;;;;;;;-146.27;92.02;82382.19;5028805;28;20029;-73
2023/08/16 01:06:45;;;;;;;9.30;5.40;;;;;;;-146.27;92.22;82412.31;5029710;28;20145;-72
2023/08/16 01:09:11;;;;;;;8.27;5.30;;;;;;;-146.27;92.44;82400.25;5028575;28;20041;-73
2023/08/16 01:11:56;;;;;;;6.18;4.82;;;;;;;-146.27;92.84;82416.31;5030258;28;20021;-75
2023/08/16 01:14:29;;;;;;;10.50;4.80;;;;;;;-146.27;92.79;82384.19;5031634;28;20477;-73
2023/08/16 01:16:56;;;;;;;9.88;5.80;;;;;;;-146.27;92.03;82384.19;5032097;28;20029;-72
2023/08/16 01:19:28;;;;;;;7.18;5.57;;;;;;;-146.27;92.48;82380.16;5031126;28;20029;-72
2023/08/16 01:22:12;;;;;;;11.00;5.65;;;;;;;-146.27;92.84;82392.22;5030913;28;20029;-72
2023/08/16 01:25:14;;;;;;;8.57;5.75;;;;;;;-146.27;92.57;82388.22;5028615;28;20042;-72
2023/08/16 01:27:42;;;;;;;9.15;5.60;;;;;;;-146.27;92.04;82420.34;5019385;28;20025;-72
2023/08/16 01:30:09;;;;;;;9.50;5.50;;;;;;;-146.27;92.56;82438.44;5029286;28;20036;-73
2023/08/16 01:32:36;;;;;;;9.68;6.32;;;;;;;-146.27;93.49;82416.31;5029765;28;20026;-74
2023/08/16 01:35:02;;;;;;;14.13;6.82;;;;;;;-146.27;93.89;82450.47;5027762;28;20033;-72
2023/08/16 01:37:28;;;;;;;8.90;6.10;;;;;;;-146.27;93.80;82442.44;5029255;28;20029;-72
2023/08/16 01:40:00;;;;;;;11.48;6.20;;;;;;;-146.27;93.87;82432.41;5030409;28;20052;-73
2023/08/16 01:42:28;;;;;;;10.18;6.05;;;;;;;-146.27;93.51;82450.47;5029356;28;20033;-74
2023/08/16 01:44:56;;;;;;;9.38;6.50;;;;;;;-146.27;93.78;82438.44;5021007;28;20044;-73
2023/08/16 01:47:21;;;;;;;8.63;6.20;;;;;;;-146.27;93.64;82376.16;5028851;28;20036;-74
2023/08/16 01:49:47;;;;;;;10.13;6.18;;;;;;;-146.27;93.13;82412.31;5028100;28;20448;-73
2023/08/16 01:52:13;;;;;;;9.18;6.28;;;;;;;-146.27;93.35;82416.31;5031309;28;20057;-72
2023/08/16 01:54:38;;;;;;;13.10;6.97;;;;;;;-146.27;93.17;82456.50;5031145;28;20029;-73
2023/08/16 01:57:04;;;;;;;8.35;6.05;;;;;;;-146.27;92.98;82460.53;5027764;28;20676;-73
2023/08/16 01:59:29;;;;;;;9.60;5.72;;;;;;;-146.27;92.92;82424.38;5024171;28;20017;-74
2023/08/16 02:01:54;;;;;;;9.88;6.55;;;;;;;-146.27;92.50;82460.53;5025212;28;20120;-72
2023/08/16 02:04:20;;;;;;;8.07;6.13;;;;;;;-146.27;92.69;82484.63;5024305;28;20112;-72
2023/08/16 02:06:45;;;;;;;7.75;5.78;;;;;;;-146.27;92.83;82464.53;5021009;28;20049;-73
2023/08/16 02:09:11;;;;;;;15.07;6.60;;;;;;;-146.27;92.96;82472.56;5024466;28;20029;-74
2023/08/16 02:11:36;;;;;;;12.13;7.22;;;;;;;-146.27;93.56;82466.56;5024026;28;20408;-73
2023/08/16 02:14:01;;;;;;;12.30;6.72;;;;;;;-146.27;93.60;82478.59;5021016;28;20026;-74
2023/08/16 02:16:27;;;;;;;9.13;7.25;;;;;;;-146.27;93.54;82484.63;5023888;28;20526;-73
2023/08/16 02:18:52;;;;;;;9.23;6.55;;;;;;;-146.27;93.21;82478.59;5031309;28;20529;-72
2023/08/16 02:21:18;;;;;;;13.23;7.78;;;;;;;-146.27;93.52;82496.69;5029713;28;20036;-74
2023/08/16 02:23:43;;;;;;;11.30;7.55;;;;;;;-146.27;93.25;82508.72;5021227;28;20025;-72
2023/08/16 02:26:09;;;;;;;11.82;8.05;;;;;;;-146.27;93.91;82474.59;5027803;28;20385;-74
2023/08/16 02:28:34;;;;;;;14.45;8.25;;;;;;;-146.27;93.68;82472.56;5028729;28;20284;-72
2023/08/16 02:31:06;;;;;;;12.98;8.73;;;;;;;-146.27;93.92;82446.47;5027683;28;20091;-73
2023/08/16 02:33:33;;;;;;;11.07;7.95;;;;;;;-146.27;94.07;82448.47;5029671;28;20033;-72
2023/08/16 02:35:58;;;;;;;10.65;8.20;;;;;;;-146.27;94.80;82472.56;5028634;28;20104;-74
2023/08/16 02:38:24;;;;;;;9.90;8.07;;;;;;;-146.27;94.88;82466.56;5028091;28;20443;-74
2023/08/16 02:40:50;;;;;;;10.52;7.90;;;;;;;-146.27;94.28;82472.56;5026464;28;20040;-72
2023/08/16 02:43:15;;;;;;;9.63;7.97;;;;;;;-146.27;94.13;82484.63;5027807;28;20485;-73
2023/08/16 02:45:41;;;;;;;8.52;7.18;;;;;;;-146.27;94.29;82468.56;5029391;28;20035;-73
2023/08/16 02:48:06;;;;;;;8.73;7.10;;;;;;;-146.27;94.83;82456.50;5030273;28;20025;-73
2023/08/16 02:50:31;;;;;;;8.38;6.72;;;;;;;-146.27;94.26;82468.56;5027376;28;20839;-73
2023/08/16 02:52:57;;;;;;;8.80;6.47;;;;;;;-146.27;94.08;82470.56;5027936;28;20028;-73
2023/08/16 02:55:22;;;;;;;9.40;7.32;;;;;;;-146.27;93.93;82472.56;5029818;28;20313;-73
2023/08/16 02:57:47;;;;;;;7.63;6.82;;;;;;;-146.27;94.24;82474.59;5028589;28;20033;-73
2023/08/16 03:00:13;;;;;;;8.63;6.93;;;;;;;-146.27;94.21;82504.72;5024964;28;20036;-73
2023/08/16 03:02:39;;;;;;;12.60;7.00;;;;;;;-146.27;93.99;82466.56;5027647;28;20033;-73
2023/08/16 03:05:06;;;;;;;9.40;7.10;;;;;;;-146.27;94.05;82472.56;5029631;28;20044;-73
2023/08/16 03:07:31;;;;;;;11.10;6.88;;;;;;;-146.27;93.95;82476.59;5027893;28;20057;-72
2023/08/16 03:09:56;;;;;;;9.18;7.57;;;;;;;-146.27;94.32;82496.69;5028684;28;20370;-74
2023/08/16 03:12:22;;;;;;;8.63;6.72;;;;;;;-146.27;94.65;82500.69;5028230;28;20029;-73
2023/08/16 03:14:47;;;;;;;9.48;6.97;;;;;;;-146.27;94.69;82484.63;5026857;28;20029;-75
2023/08/16 03:17:12;;;;;;;9.88;7.65;;;;;;;-146.27;94.44;82472.56;5027666;28;20045;-76
2023/08/16 03:19:38;;;;;;;10.23;7.95;;;;;;;-146.27;94.51;82512.75;5030230;28;20557;-75
2023/08/16 03:22:03;;;;;;;13.63;8.07;;;;;;;-146.27;95.08;82508.72;5022991;28;20519;-76
2023/08/16 03:24:30;;;;;;;9.50;8.50;;;;;;;-146.27;94.92;82538.88;5027256;28;20477;-75
2023/08/16 03:26:55;;;;;;;10.93;8.55;;;;;;;-146.27;95.02;82577.03;5024529;28;20033;-75
2023/08/16 03:29:20;;;;;;;10.73;7.32;;;;;;;-146.27;95.26;82518.78;5028825;28;20021;-75
2023/08/16 03:31:46;;;;;;;9.45;7.60;;;;;;;-146.27;96.45;82516.78;5028323;28;20029;-76
2023/08/16 03:34:12;;;;;;;10.55;7.40;;;;;;;-146.27;94.91;82562.97;5028725;28;20393;-76
2023/08/16 03:36:37;;;;;;;9.80;7.60;;;;;;;-146.27;94.19;82532.84;5027460;28;20127;-76
2023/08/16 03:39:05;;;;;;;9.43;7.57;;;;;;;-146.27;94.35;82552.94;5027952;28;20060;-76
2023/08/16 03:41:37;;;;;;;8.77;7.57;;;;;;;-146.27;94.50;82538.88;5024875;28;20025;-75
2023/08/16 03:44:04;;;;;;;12.38;7.72;;;;;;;-146.27;94.59;82542.88;5028132;28;20028;-75
2023/08/16 03:46:29;;;;;;;10.70;7.22;;;;;;;-146.27;95.12;82548.91;5027925;28;20412;-75
2023/08/16 03:48:55;;;;;;;11.55;8.20;;;;;;;-146.27;94.94;82564.97;5028490;28;20048;-76
2023/08/16 03:51:20;;;;;;;9.60;8.13;;;;;;;-146.27;95.46;82589.09;5028115;28;20436;-76
2023/08/16 03:53:46;;;;;;;10.45;7.97;;;;;;;-146.27;95.48;82589.09;5025106;28;20108;-75
2023/08/16 03:56:11;;;;;;;10.68;8.05;;;;;;;-146.27;95.23;82573.00;5021211;28;20033;-75
2023/08/16 03:58:36;;;;;;;11.82;7.78;;;;;;;-146.27;94.37;82575.03;5021068;28;20349;-75
2023/08/16 04:01:02;;;;;;;11.20;7.72;;;;;;;-146.27;94.34;82577.03;5020752;28;20075;-75
2023/08/16 04:03:27;;;;;;;13.00;7.80;;;;;;;-146.27;93.66;82589.09;5022096;28;20120;-77
2023/08/16 04:05:53;;;;;;;11.60;8.27;;;;;;;-146.27;94.83;82605.16;5021490;28;20564;-76
2023/08/16 04:08:18;;;;;;;9.60;7.85;;;;;;;-146.27;95.48;82597.13;5020036;28;20804;-75
2023/08/16 04:10:44;;;;;;;11.68;8.88;;;;;;;-146.27;94.51;82589.09;5019476;28;20396;-77
2023/08/16 04:13:09;;;;;;;10.75;7.95;;;;;;;-146.27;94.07;82621.22;5018569;28;20593;-76
2023/08/16 04:15:35;;;;;;;10.27;7.40;;;;;;;-146.27;94.64;82633.28;5019655;28;20031;-76
2023/08/16 04:18:00;;;;;;;11.25;8.18;;;;;;;-146.27;94.96;82619.22;5021780;28;20041;-76
2023/08/16 04:20:25;;;;;;;12.20;7.93;;;;;;;-146.27;94.72;82558.97;5020536;28;20057;-75
2023/08/16 04:22:51;;;;;;;11.60;8.18;;;;;;;-146.27;94.68;82649.34;5020331;28;20096;-74
2023/08/16 04:25:16;;;;;;;13.23;7.78;;;;;;;-146.27;94.75;82593.09;5022762;28;20025;-75
2023/08/16 04:27:42;;;;;;;9.13;7.68;;;;;;;-146.27;94.32;82629.28;5027546;28;20779;-76
2023/08/16 04:30:10;;;;;;;12.50;8.45;;;;;;;-146.27;94.01;82617.22;5024992;28;20080;-75
2023/08/16 04:32:36;;;;;;;11.55;8.05;;;;;;;-146.27;94.24;82625.25;5026245;28;20473;-75
2023/08/16 04:35:02;;;;;;;9.75;7.57;;;;;;;-146.27;94.54;82619.22;5026965;28;20040;-75
2023/08/16 04:37:27;;;;;;;11.05;7.47;;;;;;;-146.27;94.74;82637.31;5026793;28;20037;-75
2023/08/16 04:39:53;;;;;;;10.15;7.88;;;;;;;-146.27;94.94;82625.25;5027167;28;20021;-75
2023/08/16 04:42:19;;;;;;;10.32;8.32;;;;;;;-146.27;94.58;82661.41;5024892;28;20486;-75
2023/08/16 04:44:44;;;;;;;11.25;7.70;;;;;;;-146.27;94.41;82679.50;5026294;28;20465;-75
2023/08/16 04:47:10;;;;;;;9.73;7.60;;;;;;;-146.27;94.44;82673.47;5026822;28;20083;-76
2023/08/16 04:49:35;;;;;;;8.98;7.63;;;;;;;-146.27;94.46;82633.28;5016356;28;20068;-75
2023/08/16 04:52:01;;;;;;;12.07;8.02;;;;;;;-146.27;94.67;82689.53;5014893;28;20018;-75
2023/08/16 04:54:26;;;;;;;11.20;7.40;;;;;;;-146.27;94.53;82661.41;5027116;28;20025;-75
2023/08/16 04:56:52;;;;;;;10.80;7.80;;;;;;;-146.27;94.75;82663.41;5026850;28;20088;-76
2023/08/16 04:59:18;;;;;;;10.32;7.93;;;;;;;-146.27;95.02;82633.28;5026179;28;20022;-75
2023/08/16 05:01:43;;;;;;;9.73;7.05;;;;;;;-146.27;95.11;82647.34;5026885;28;20461;-76
2023/08/16 05:04:09;;;;;;;12.45;7.75;;;;;;;-146.27;95.31;82655.38;5025976;28;20477;-76
2023/08/16 05:06:35;;;;;;;12.27;7.55;;;;;;;-146.27;94.99;82665.44;5021717;28;20767;-75
2023/08/16 05:09:01;;;;;;;14.77;8.88;;;;;;;-146.27;95.31;82625.25;5026168;28;20034;-75
2023/08/16 05:11:27;;;;;;;12.38;8.35;;;;;;;-146.27;95.86;82615.22;5027704;28;20029;-75
2023/08/16 05:13:52;;;;;;;13.50;9.75;;;;;;;-146.27;95.79;82645.34;5024834;28;20436;-76
2023/08/16 05:16:17;;;;;;;13.32;9.32;;;;;;;-146.27;96.20;82625.25;5024235;28;20041;-76
2023/08/16 05:18:43;;;;;;;13.32;9.13;;;;;;;-146.27;96.46;82617.22;5026076;28;20511;-75
2023/08/16 05:21:08;;;;;;;12.38;8.90;;;;;;;-146.27;96.15;82577.03;5027791;28;20025;-76
2023/08/16 05:23:34;;;;;;;17.80;10.35;;;;;;;-146.27;96.20;82597.13;5026832;28;20105;-77
2023/08/16 05:26:00;;;;;;;15.45;9.38;;;;;;;-146.27;96.21;82593.09;5028700;28;20060;-76
2023/08/16 05:28:25;;;;;;;13.93;10.05;;;;;;;-146.27;96.41;82597.13;5018301;28;20113;-76
2023/08/16 05:30:51;;;;;;;16.73;9.95;;;;;;;-146.27;96.93;82597.13;5024855;28;20025;-70
2023/08/16 05:33:16;;;;;;;14.68;9.98;;;;;;;-146.27;96.95;82569.00;5016084;28;20033;-77
2023/08/16 05:35:41;;;;;;;16.30;10.68;;;;;;;-146.27;98.44;82567.00;5032062;28;20017;-75
2023/08/16 05:38:07;;;;;;;17.95;10.07;;;;;;;-146.27;98.53;82560.97;5026795;28;20025;-76
2023/08/16 05:40:32;;;;;;;20.10;9.88;;;;;;;-146.27;97.88;82510.75;5022107;28;20079;-76
2023/08/16 05:42:58;;;;;;;13.68;9.30;;;;;;;-146.27;97.73;82540.88;5021263;28;20049;-76
2023/08/16 05:45:26;;;;;;;14.52;9.38;;;;;;;-146.27;98.04;82524.81;5029890;28;20404;-76
2023/08/16 05:47:52;;;;;;;17.13;9.45;;;;;;;-146.27;98.56;82496.69;5030165;28;20029;-76
2023/08/16 05:50:18;;;;;;;16.00;9.35;;;;;;;-146.27;98.44;82492.66;5025978;28;20068;-76
2023/08/16 05:52:44;;;;;;;14.77;9.95;;;;;;;-146.27;99.30;82480.59;5028668;28;20033;-75
2023/08/16 05:55:09;;;;;;;12.80;9.75;;;;;;;-146.27;98.84;82466.56;5031375;28;20040;-75
2023/08/16 05:57:34;;;;;;;19.38;9.90;;;;;;;-146.27;99.21;82408.28;5031251;28;20053;-75
2023/08/16 06:00:00;;;;;;;17.65;9.70;;;;;;;-146.27;99.08;82404.28;5024085;28;20036;-75
2023/08/16 06:02:25;;;;;;;20.17;9.65;;;;;;;-146.27;98.70;82346.03;5030014;28;20023;-75
2023/08/16 06:04:52;;;;;;;20.23;9.50;;;;;;;-146.27;99.04;82337.97;5029377;28;20130;-76
2023/08/16 06:07:17;;;;;;;17.73;9.50;;;;;;;-146.27;98.08;82319.91;5029062;28;20057;-71
2023/08/16 06:09:43;;;;;;;14.20;8.73;;;;;;;-146.27;99.01;82327.94;5029031;28;20037;-74
2023/08/16 06:12:08;;;;;;;24.48;10.93;;;;;;;-146.27;98.98;82346.03;5030396;28;20064;-71
2023/08/16 06:14:34;;;;;;;15.38;10.38;;;;;;;-146.27;98.34;82313.88;5027977;28;20038;-72
2023/08/16 06:16:59;;;;;;;18.38;9.88;;;;;;;-146.27;97.97;82275.72;5029924;28;20052;-72
2023/08/16 06:19:24;;;;;;;15.02;9.65;;;;;;;-146.27;97.89;82289.78;5028434;28;20022;-72
2023/08/16 06:21:50;;;;;;;15.02;10.15;;;;;;;-146.27;97.23;82303.84;5024999;28;20024;-71
2023/08/16 06:24:15;;;;;;;16.27;9.73;;;;;;;-146.27;97.31;82273.72;5029484;28;20025;-71
2023/08/16 06:26:41;;;;;;;15.23;9.38;;;;;;;-146.27;98.10;82251.59;5029466;28;20036;-71
2023/08/16 06:29:06;;;;;;;18.25;9.57;;;;;;;-146.27;97.34;82267.69;5029538;28;20433;-73
2023/08/16 06:31:32;;;;;;;12.82;8.70;;;;;;;-146.27;96.87;82203.41;5029385;28;20017;-71
2023/08/16 06:34:00;;;;;;;14.10;8.98;;;;;;;-146.27;97.21;82231.53;5028925;28;20032;-71
2023/08/16 06:36:26;;;;;;;16.40;9.35;;;;;;;-146.27;96.91;82227.50;5029202;28;20048;-71
2023/08/16 06:38:53;;;;;;;16.35;8.95;;;;;;;-146.27;97.06;82187.31;5031016;28;20061;-73
2023/08/16 06:41:18;;;;;;;11.68;8.85;;;;;;;-146.27;96.82;82231.53;5022910;28;20029;-72
2023/08/16 06:43:44;;;;;;;13.55;9.65;;;;;;;-146.27;96.92;82203.41;5029360;28;20037;-72
2023/08/16 06:46:09;;;;;;;11.85;9.05;;;;;;;-146.27;96.66;82179.28;5031202;28;20120;-72
2023/08/16 06:48:34;;;;;;;15.85;8.90;;;;;;;-146.27;96.44;82199.38;5030013;28;20044;-72
2023/08/16 06:51:00;;;;;;;13.15;8.68;;;;;;;-146.27;96.45;82211.44;5028375;28;20152;-72
2023/08/16 06:53:25;;;;;;;20.67;9.73;;;;;;;-146.27;96.46;82147.16;5030320;28;20040;-72
2023/08/16 06:55:55;;;;;;;13.98;9.82;;;;;;;-146.27;96.61;82131.09;5027131;28;20040;-72
2023/08/16 06:58:20;;;;;;;14.50;9.25;;;;;;;-146.27;96.56;82106.97;5030288;28;20029;-72
2023/08/16 07:00:47;;;;;;;15.27;9.10;;;;;;;-146.27;96.49;82086.91;5029509;28;20048;-71
2023/08/16 07:03:13;;;;;;;15.73;9.63;;;;;;;-146.27;96.16;82062.78;5028331;28;20516;-72
2023/08/16 07:05:39;;;;;;;15.63;8.80;;;;;;;-146.27;96.25;82038.69;5027828;28;20052;-72
2023/08/16 07:08:05;;;;;;;10.38;8.10;;;;;;;-146.27;96.39;82014.59;5024657;28;20041;-72
2023/08/16 07:10:31;;;;;;;12.18;8.00;;;;;;;-146.27;96.30;82008.56;5023964;28;20033;-71
2023/08/16 07:12:56;;;;;;;12.93;8.70;;;;;;;-146.27;96.18;81948.31;5025054;28;20025;-72
2023/08/16 07:15:21;;;;;;;15.73;7.65;;;;;;;-146.27;96.46;81966.38;5028228;28;20441;-72
2023/08/16 07:17:47;;;;;;;15.38;8.57;;;;;;;-146.27;96.63;81938.25;5023674;28;20037;-71
2023/08/16 07:20:12;;;;;;;14.52;8.88;;;;;;;-146.27;96.95;81900.09;5022774;28;20029;-72
2023/08/16 07:22:38;;;;;;;13.75;7.90;;;;;;;-146.27;97.25;81878.00;5022267;28;20037;-72
2023/08/16 07:25:08;;;;;;;15.32;7.13;;;;;;;-146.27;97.29;81843.84;5021691;28;20604;-72
2023/08/16 07:27:33;;;;;;;11.77;6.93;;;;;;;-146.27;96.77;81833.81;5022177;28;20108;-71
2023/08/16 07:29:59;;;;;;;9.60;5.40;;;;;;;-146.27;96.38;81821.75;5027548;28;20124;-73
2023/08/16 07:32:24;;;;;;;12.65;7.18;;;;;;;-146.27;95.59;81797.66;5025460;28;20424;-72
2023/08/16 07:34:50;;;;;;;12.20;6.18;;;;;;;-146.27;94.59;81785.59;5022679;28;20109;-72
2023/08/16 07:37:15;;;;;;;9.75;5.90;;;;;;;-146.27;94.23;81733.38;5021781;28;20564;-72
2023/08/16 07:39:41;;;;;;;10.27;4.57;;;;;;;-146.27;93.81;81759.50;5021458;28;20032;-72
2023/08/16 07:42:07;;;;;;;4.07;3.20;;;;;;;-146.27;93.36;81691.22;5024824;28;20025;-72
2023/08/16 07:44:34;;;;;;;7.72;3.72;;;;;;;-146.27;92.23;81679.16;5026635;28;20444;-72
2023/08/16 07:47:00;;;;;;;7.93;2.97;;;;;;;-146.27;91.51;81681.16;5027329;28;20030;-72
2023/08/16 07:49:25;;;;;;;6.15;3.00;;;;;;;-146.27;88.78;81661.09;5013725;28;20052;-72
2023/08/16 07:51:51;;;;;;;10.15;2.70;;;;;;;-146.27;88.45;81643.00;5028218;28;20025;-73
2023/08/16 07:54:16;;;;;;;6.60;2.35;;;;;;;-146.27;86.89;81612.88;5027932;28;20136;-71
2023/08/16 07:56:42;;;;;;;5.80;2.30;;;;;;;-146.27;86.83;81556.66;5027836;28;20025;-72
2023/08/16 07:59:07;;;;;;;2.90;1.67;;;;;;;-146.27;85.79;81566.69;5029143;28;20017;-80
2023/08/16 08:01:33;;;;;;;1.73;1.27;;;;;;;-146.27;84.67;81556.66;5027671;28;20393;-79
2023/08/16 08:03:58;;;;;;;3.55;1.98;;;;;;;-146.27;83.93;81540.56;5023016;28;20036;-73
2023/08/16 08:06:23;;;;;;;2.92;1.80;;;;;;;-146.27;83.37;81524.50;5026962;28;20530;-79
2023/08/16 08:08:49;;;;;;;4.05;1.70;;;;;;;-146.27;82.96;81540.56;5024315;28;20117;-79
2023/08/16 08:11:14;;;;;;;3.85;1.60;;;;;;;-146.27;83.15;81466.28;5026114;28;20453;-78
2023/08/16 08:13:39;;;;;;;4.43;1.90;;;;;;;-146.27;83.09;81456.22;5028775;28;20389;-80
2023/08/16 08:16:07;;;;;;;5.03;1.90;;;;;;;-146.27;83.39;81397.97;5027619;28;20021;-78
2023/08/16 08:18:32;;;;;;;8.68;2.83;;;;;;;-146.27;83.27;81391.97;5029305;28;20041;-79
2023/08/16 08:20:59;;;;;;;7.50;2.10;;;;;;;-146.27;82.79;81343.75;5026670;28;20029;-78
2023/08/16 08:23:25;;;;;;;8.32;2.08;;;;;;;-146.27;84.00;81319.66;5027174;28;20057;-78
2023/08/16 08:25:51;;;;;;;6.25;2.95;;;;;;;-146.27;84.46;81275.47;5028556;28;20045;-80
2023/08/16 08:28:17;;;;;;;8.40;2.80;;;;;;;-146.27;83.88;81285.53;5018220;28;20029;-78
2023/08/16 08:30:43;;;;;;;6.85;2.42;;;;;;;-146.27;83.90;81271.47;5027018;28;20025;-78
2023/08/16 08:33:09;;;;;;;7.72;2.60;;;;;;;-146.27;84.04;81259.41;5028807;28;20029;-79
2023/08/16 08:35:34;;;;;;;5.50;2.40;;;;;;;-146.27;83.66;81191.13;5027491;28;20041;-79
2023/08/16 08:37:59;;;;;;;8.77;2.85;;;;;;;-146.27;83.17;81187.13;5028603;28;20075;-79
2023/08/16 08:40:27;;;;;;;4.65;2.65;;;;;;;-146.27;82.87;81171.06;5029717;28;20120;-78
2023/08/16 08:42:54;;;;;;;8.27;2.72;;;;;;;-146.27;83.33;81161.00;5019881;28;20029;-79
2023/08/16 08:45:20;;;;;;;7.30;3.08;;;;;;;-146.27;83.71;81102.78;5027729;28;20029;-79
2023/08/16 08:47:47;;;;;;;6.93;3.50;;;;;;;-146.27;83.69;81042.53;5027915;28;20040;-80
2023/08/16 08:50:12;;;;;;;6.93;3.80;;;;;;;-146.27;83.73;81056.59;5023702;28;20052;-79
2023/08/16 08:52:38;;;;;;;10.10;3.20;;;;;;;-146.27;83.23;81044.53;5020881;28;20056;-79
2023/08/16 08:55:04;;;;;;;9.45;3.63;;;;;;;-146.27;82.71;81026.47;5018489;28;20037;-80
2023/08/16 08:57:30;;;;;;;4.53;2.42;;;;;;;-146.27;81.46;80990.31;5028240;28;20025;-78
2023/08/16 08:59:59;;;;;;;7.90;2.30;;;;;;;-146.27;82.82;80950.16;5024428;28;20028;-79
2023/08/16 09:02:28;;;;;;;6.90;2.38;;;;;;;-146.27;81.01;80903.97;5025255;28;20032;-79
2023/08/16 09:04:59;;;;;;;3.95;1.90;;;;;;;-146.27;78.29;80934.09;5015920;28;20121;-76
2023/08/16 09:07:25;;;;;;;4.40;1.50;;;;;;;-146.27;75.97;80903.97;5032525;28;20109;-76
2023/08/16 09:09:52;;;;;;;3.58;1.60;;;;;;;-146.27;74.25;80889.91;5032734;28;20017;-76
2023/08/16 09:12:19;;;;;;;9.77;2.35;;;;;;;-146.27;74.79;80851.75;5029969;28;20526;-75
2023/08/16 09:14:44;;;;;;;4.32;1.60;;;;;;;-146.27;74.85;80783.50;5048417;28;20109;-76
2023/08/16 09:17:10;;;;;;;5.22;1.55;;;;;;;-146.27;74.47;80767.44;5048319;28;20455;-77
2023/08/16 09:19:47;;;;;;;6.82;2.22;;;;;;;-146.27;72.81;80779.47;5033457;28;20017;-77
2023/08/16 09:22:12;;;;;;;4.03;1.25;;;;;;;-146.27;70.56;80761.41;5032498;28;20566;-76
2023/08/16 09:24:42;;;;;;;4.45;1.10;;;;;;;-146.27;70.39;80689.13;5032079;28;20017;-75
2023/08/16 09:27:07;;;;;;;7.50;1.13;;;;;;;-146.27;71.66;80691.13;5048411;28;20105;-75
2023/08/16 09:29:37;;;;;;;5.20;1.40;;;;;;;-146.27;72.24;80620.84;5032375;28;20426;-76
2023/08/16 09:32:05;;;;;;;3.25;1.33;;;;;;;-146.27;69.77;80600.75;5030639;28;20095;-76
2023/08/16 09:34:31;;;;;;;2.00;1.10;;;;;;;-146.27;69.64;80570.66;5031813;28;20049;-77
2023/08/16 09:36:56;;;;;;;3.92;1.60;;;;;;;-146.27;71.11;80452.19;5032177;28;20030;-76
2023/08/16 09:39:25;;;;;;;3.78;1.60;;;;;;;-146.27;70.89;80538.53;5033089;28;20480;-76
2023/08/16 09:41:51;;;;;;;3.55;1.42;;;;;;;-146.27;72.73;80442.16;5031959;28;20033;-76
2023/08/16 09:44:17;;;;;;;3.47;1.30;;;;;;;-146.27;71.00;80408.00;5030570;28;20401;-76
2023/08/16 09:46:43;;;;;;;2.30;1.00;;;;;;;-146.27;69.03;80339.75;5032665;28;20030;-75
2023/08/16 09:49:09;;;;;;;1.73;1.13;;;;;;;-146.27;68.71;80259.44;5027857;28;20040;-76
2023/08/16 09:51:40;;;;;;;3.30;1.13;;;;;;;-146.27;66.61;80319.66;5029918;28;20104;-76
2023/08/16 09:54:13;;;;;;;6.93;1.30;;;;;;;-146.27;67.81;80275.50;5031863;28;20428;-76
2023/08/16 09:56:39;;;;;;;2.33;1.40;;;;;;;-146.27;68.81;80231.31;5030839;28;20104;-76
2023/08/16 09:59:07;;;;;;;3.38;1.33;;;;;;;-146.27;69.16;80189.16;5032203;28;20473;-76
2023/08/16 10:01:33;;;;;;;4.10;1.55;;;;;;;-146.27;66.25;80177.13;5029011;28;20021;-75
2023/08/16 10:03:59;;;;;;;3.42;1.40;;;;;;;-146.27;68.78;80124.91;5027044;28;20036;-75
2023/08/16 10:06:25;;;;;;;3.42;1.75;;;;;;;-146.27;65.32;80132.94;5031707;28;20124;-76
2023/08/16 10:08:52;;;;;;;5.82;1.30;;;;;;;-146.27;68.47;80114.88;5030870;28;20451;-76
2023/08/16 10:11:22;;;;;;;3.70;1.38;;;;;;;-146.27;66.67;80046.63;5031789;28;20033;-76
2023/08/16 10:13:48;;;;;;;2.95;1.30;;;;;;;-146.27;65.98;80038.59;5027768;28;20083;-75
2023/08/16 10:16:15;;;;;;;3.20;1.77;;;;;;;-146.27;67.00;79982.38;5030540;28;20059;-77
2023/08/16 10:18:45;;;;;;;3.58;0.90;;;;;;;-146.27;63.86;79990.41;5031617;28;20017;-79
2023/08/16 10:21:18;;;;;;;2.00;0.95;;;;;;;-146.27;63.23;79894.03;5032045;28;20108;-78
2023/08/16 10:23:44;;;;;;;2.38;1.02;;;;;;;-146.27;64.04;79886.00;5012129;28;20089;-79
2023/08/16 10:26:14;;;;;;;4.28;1.30;;;;;;;-146.27;62.01;79877.97;5031082;28;20320;-78
2023/08/16 10:28:44;;;;;;;2.65;1.02;;;;;;;-146.27;60.02;79882.00;5030133;28;20389;-78
2023/08/16 10:31:11;;;;;;;3.25;1.10;;;;;;;-146.27;64.78;79857.91;5031423;28;20072;-78
2023/08/16 10:33:44;;;;;;;4.03;1.20;;;;;;;-146.27;61.79;79827.78;5031384;28;20029;-78
2023/08/16 10:36:11;;;;;;;5.68;0.93;;;;;;;-146.27;63.39;79775.59;5032551;28;20032;-78
2023/08/16 10:38:37;;;;;;;1.25;0.75;;;;;;;-146.27;58.90;79705.34;5030961;28;20029;-77
2023/08/16 10:41:10;;;;;;;2.67;0.95;;;;;;;-146.27;60.61;79701.31;5018792;28;20029;-77
2023/08/16 10:43:35;;;;;;;3.88;1.00;;;;;;;-146.27;62.90;79633.06;5028390;28;20025;-78
2023/08/16 10:46:01;;;;;;;3.58;1.20;;;;;;;-146.27;60.02;79578.88;5031046;28;20037;-78
2023/08/16 10:48:35;;;;;;;5.10;1.10;;;;;;;-146.27;59.56;79596.94;5031542;28;20556;-78
2023/08/16 10:51:05;;;;;;;2.13;1.15;;;;;;;-146.27;55.62;79536.72;5014021;28;20499;-78
2023/08/16 10:53:32;;;;;;;1.25;0.73;;;;;;;-146.27;57.21;79424.31;5030373;28;20037;-77
2023/08/16 10:55:57;;;;;;;1.90;1.00;;;;;;;-146.27;57.03;79370.09;5030756;28;20026;-78
2023/08/16 10:58:23;;;;;;;5.57;1.08;;;;;;;-146.27;55.95;79309.88;5031248;28;20071;-78
2023/08/16 11:00:59;;;;;;;3.30;1.02;;;;;;;-146.27;52.40;79313.91;5029813;28;20473;-78
2023/08/16 11:03:35;;;;;;;2.42;1.02;;;;;;;-146.27;52.61;79323.94;5029642;28;20038;-78
2023/08/16 11:06:08;;;;;;;3.03;1.30;;;;;;;-146.27;57.98;79301.84;5029020;28;20033;-79
2023/08/16 11:08:34;;;;;;;;;;;;;;;-146.27;54.61;79352.03;5030532;28;20025;-77
2023/08/16 11:11:03;;;;;;;2.85;0.70;;;;;;;-146.27;53.17;79275.75;5029989;28;20277;-77